sensor_id;sensor_type;location;lat;lon;timestamp;P1;durP1;ratioP1;P2;durP2;ratioP2
17214;SDS011;8723;51.502;6.918;2023-03-14T00:01:20;5.10;;;2.22;;
17214;SDS011;8723;51.502;6.918;2023-03-14T00:03:48;6.28;;;2.10;;
17214;SDS011;8723;51.502;6.918;2023-03-14T00:06:16;4.32;;;2.08;;
17214;SDS011;8723;51.502;6.918;2023-03-14T00:08:43;3.90;;;1.88;;
17214;SDS011;8723;51.502;6.918;2023-03-14T00:11:12;4.97;;;2.22;;
17214;SDS011;8723;51.502;6.918;2023-03-14T00:13:40;5.78;;;2.25;;
17214;SDS011;8723;51.502;6.918;2023-03-14T00:16:08;7.03;;;2.28;;
17214;SDS011;8723;51.502;6.918;2023-03-14T00:18:35;5.85;;;2.20;;
17214;SDS011;8723;51.502;6.918;2023-03-14T00:21:03;6.05;;;2.47;;
17214;SDS011;8723;51.502;6.918;2023-03-14T00:23:31;5.38;;;2.13;;
17214;SDS011;8723;51.502;6.918;2023-03-14T00:25:58;3.90;;;1.85;;
17214;SDS011;8723;51.502;6.918;2023-03-14T00:28:26;5.60;;;2.28;;
17214;SDS011;8723;51.502;6.918;2023-03-14T00:30:54;4.60;;;2.22;;
17214;SDS011;8723;51.502;6.918;2023-03-14T00:33:22;5.28;;;2.30;;
17214;SDS011;8723;51.502;6.918;2023-03-14T00:35:52;5.22;;;2.17;;
17214;SDS011;8723;51.502;6.918;2023-03-14T00:38:20;5.18;;;2.22;;
17214;SDS011;8723;51.502;6.918;2023-03-14T00:40:47;6.60;;;2.15;;
17214;SDS011;8723;51.502;6.918;2023-03-14T00:43:14;4.67;;;2.10;;
17214;SDS011;8723;51.502;6.918;2023-03-14T00:45:41;3.90;;;2.25;;
17214;SDS011;8723;51.502;6.918;2023-03-14T00:48:09;6.30;;;2.30;;
17214;SDS011;8723;51.502;6.918;2023-03-14T00:50:36;7.72;;;2.40;;
17214;SDS011;8723;51.502;6.918;2023-03-14T00:53:03;5.10;;;2.30;;
17214;SDS011;8723;51.502;6.918;2023-03-14T00:55:31;5.15;;;2.10;;
17214;SDS011;8723;51.502;6.918;2023-03-14T00:57:58;5.25;;;2.10;;
17214;SDS011;8723;51.502;6.918;2023-03-14T01:00:25;3.42;;;1.85;;
17214;SDS011;8723;51.502;6.918;2023-03-14T01:02:52;5.22;;;1.85;;
17214;SDS011;8723;51.502;6.918;2023-03-14T01:05:20;5.45;;;2.10;;
17214;SDS011;8723;51.502;6.918;2023-03-14T01:07:48;4.25;;;2.13;;
17214;SDS011;8723;51.502;6.918;2023-03-14T01:10:15;3.47;;;1.70;;
17214;SDS011;8723;51.502;6.918;2023-03-14T01:12:42;4.30;;;1.85;;
17214;SDS011;8723;51.502;6.918;2023-03-14T01:15:09;5.75;;;1.75;;
17214;SDS011;8723;51.502;6.918;2023-03-14T01:17:37;3.90;;;1.70;;
17214;SDS011;8723;51.502;6.918;2023-03-14T01:20:05;4.57;;;1.63;;
17214;SDS011;8723;51.502;6.918;2023-03-14T01:22:35;4.47;;;1.50;;
17214;SDS011;8723;51.502;6.918;2023-03-14T01:25:04;3.05;;;1.60;;
17214;SDS011;8723;51.502;6.918;2023-03-14T01:27:31;4.70;;;1.95;;
17214;SDS011;8723;51.502;6.918;2023-03-14T01:29:59;5.47;;;1.92;;
17214;SDS011;8723;51.502;6.918;2023-03-14T01:32:27;6.40;;;2.22;;
17214;SDS011;8723;51.502;6.918;2023-03-14T01:34:54;4.18;;;1.67;;
17214;SDS011;8723;51.502;6.918;2023-03-14T01:37:21;5.57;;;2.30;;
17214;SDS011;8723;51.502;6.918;2023-03-14T01:39:50;5.55;;;2.17;;
17214;SDS011;8723;51.502;6.918;2023-03-14T01:42:17;5.05;;;1.50;;
17214;SDS011;8723;51.502;6.918;2023-03-14T01:44:51;5.47;;;1.70;;
17214;SDS011;8723;51.502;6.918;2023-03-14T01:47:18;4.88;;;1.67;;
17214;SDS011;8723;51.502;6.918;2023-03-14T01:49:46;4.85;;;1.52;;
17214;SDS011;8723;51.502;6.918;2023-03-14T01:52:15;4.78;;;1.48;;
17214;SDS011;8723;51.502;6.918;2023-03-14T01:54:44;5.53;;;1.53;;
17214;SDS011;8723;51.502;6.918;2023-03-14T01:57:13;4.75;;;1.83;;
17214;SDS011;8723;51.502;6.918;2023-03-14T01:59:43;3.45;;;1.50;;
17214;SDS011;8723;51.502;6.918;2023-03-14T02:02:12;6.10;;;1.83;;
17214;SDS011;8723;51.502;6.918;2023-03-14T02:04:40;4.60;;;1.60;;
17214;SDS011;8723;51.502;6.918;2023-03-14T02:07:09;5.18;;;1.70;;
17214;SDS011;8723;51.502;6.918;2023-03-14T02:09:37;6.45;;;2.05;;
17214;SDS011;8723;51.502;6.918;2023-03-14T02:12:05;4.95;;;1.73;;
17214;SDS011;8723;51.502;6.918;2023-03-14T02:14:34;3.72;;;1.63;;
17214;SDS011;8723;51.502;6.918;2023-03-14T02:17:02;5.40;;;1.90;;
17214;SDS011;8723;51.502;6.918;2023-03-14T02:19:35;5.63;;;1.83;;
17214;SDS011;8723;51.502;6.918;2023-03-14T02:22:05;4.70;;;1.90;;
17214;SDS011;8723;51.502;6.918;2023-03-14T02:24:35;5.10;;;1.70;;
17214;SDS011;8723;51.502;6.918;2023-03-14T02:27:10;4.93;;;2.03;;
17214;SDS011;8723;51.502;6.918;2023-03-14T02:29:39;5.63;;;1.98;;
17214;SDS011;8723;51.502;6.918;2023-03-14T02:32:08;6.93;;;2.10;;
17214;SDS011;8723;51.502;6.918;2023-03-14T02:34:35;6.43;;;2.00;;
17214;SDS011;8723;51.502;6.918;2023-03-14T02:37:02;5.32;;;1.92;;
17214;SDS011;8723;51.502;6.918;2023-03-14T02:39:35;6.72;;;1.98;;
17214;SDS011;8723;51.502;6.918;2023-03-14T02:42:03;7.13;;;2.10;;
17214;SDS011;8723;51.502;6.918;2023-03-14T02:44:31;5.93;;;2.17;;
17214;SDS011;8723;51.502;6.918;2023-03-14T02:47:00;6.03;;;2.00;;
17214;SDS011;8723;51.502;6.918;2023-03-14T02:49:27;5.00;;;1.98;;
17214;SDS011;8723;51.502;6.918;2023-03-14T02:51:55;6.30;;;1.92;;
17214;SDS011;8723;51.502;6.918;2023-03-14T02:54:23;3.43;;;1.60;;
17214;SDS011;8723;51.502;6.918;2023-03-14T02:56:50;5.65;;;1.90;;
17214;SDS011;8723;51.502;6.918;2023-03-14T02:59:17;5.95;;;1.80;;
17214;SDS011;8723;51.502;6.918;2023-03-14T03:01:45;5.85;;;2.13;;
17214;SDS011;8723;51.502;6.918;2023-03-14T03:04:13;5.70;;;1.90;;
17214;SDS011;8723;51.502;6.918;2023-03-14T03:06:40;5.87;;;1.80;;
17214;SDS011;8723;51.502;6.918;2023-03-14T03:09:07;5.65;;;1.70;;
17214;SDS011;8723;51.502;6.918;2023-03-14T03:11:34;7.50;;;1.93;;
17214;SDS011;8723;51.502;6.918;2023-03-14T03:14:01;5.00;;;1.92;;
17214;SDS011;8723;51.502;6.918;2023-03-14T03:16:29;4.40;;;1.88;;
17214;SDS011;8723;51.502;6.918;2023-03-14T03:18:57;7.75;;;1.92;;
17214;SDS011;8723;51.502;6.918;2023-03-14T03:21:24;6.25;;;2.17;;
17214;SDS011;8723;51.502;6.918;2023-03-14T03:23:51;5.80;;;1.95;;
17214;SDS011;8723;51.502;6.918;2023-03-14T03:26:18;3.85;;;1.70;;
17214;SDS011;8723;51.502;6.918;2023-03-14T03:28:46;6.80;;;1.83;;
17214;SDS011;8723;51.502;6.918;2023-03-14T03:31:13;6.10;;;1.90;;
17214;SDS011;8723;51.502;6.918;2023-03-14T03:33:40;6.78;;;2.10;;
17214;SDS011;8723;51.502;6.918;2023-03-14T03:36:09;4.18;;;1.77;;
17214;SDS011;8723;51.502;6.918;2023-03-14T03:38:36;7.53;;;2.33;;
17214;SDS011;8723;51.502;6.918;2023-03-14T03:41:04;5.47;;;1.90;;
17214;SDS011;8723;51.502;6.918;2023-03-14T03:43:31;7.00;;;2.22;;
17214;SDS011;8723;51.502;6.918;2023-03-14T03:46:02;6.40;;;1.70;;
17214;SDS011;8723;51.502;6.918;2023-03-14T03:48:29;7.07;;;2.03;;
17214;SDS011;8723;51.502;6.918;2023-03-14T03:50:56;6.35;;;2.10;;
17214;SDS011;8723;51.502;6.918;2023-03-14T03:53:24;6.35;;;1.85;;
17214;SDS011;8723;51.502;6.918;2023-03-14T03:55:51;4.10;;;2.00;;
17214;SDS011;8723;51.502;6.918;2023-03-14T03:58:19;6.85;;;2.28;;
17214;SDS011;8723;51.502;6.918;2023-03-14T04:00:46;7.38;;;2.28;;
17214;SDS011;8723;51.502;6.918;2023-03-14T04:03:13;5.13;;;1.80;;
17214;SDS011;8723;51.502;6.918;2023-03-14T04:05:40;6.43;;;2.20;;
17214;SDS011;8723;51.502;6.918;2023-03-14T04:08:07;3.72;;;1.80;;
17214;SDS011;8723;51.502;6.918;2023-03-14T04:10:36;6.20;;;2.20;;
17214;SDS011;8723;51.502;6.918;2023-03-14T04:13:03;6.83;;;2.10;;
17214;SDS011;8723;51.502;6.918;2023-03-14T04:15:30;6.55;;;2.40;;
17214;SDS011;8723;51.502;6.918;2023-03-14T04:17:57;5.85;;;2.17;;
17214;SDS011;8723;51.502;6.918;2023-03-14T04:20:25;7.00;;;1.90;;
17214;SDS011;8723;51.502;6.918;2023-03-14T04:22:52;7.13;;;2.17;;
17214;SDS011;8723;51.502;6.918;2023-03-14T04:25:19;7.20;;;2.20;;
17214;SDS011;8723;51.502;6.918;2023-03-14T04:27:48;5.43;;;1.53;;
17214;SDS011;8723;51.502;6.918;2023-03-14T04:30:15;6.03;;;1.97;;
17214;SDS011;8723;51.502;6.918;2023-03-14T04:32:42;4.68;;;1.92;;
17214;SDS011;8723;51.502;6.918;2023-03-14T04:35:09;4.18;;;1.52;;
17214;SDS011;8723;51.502;6.918;2023-03-14T04:37:36;5.83;;;2.10;;
17214;SDS011;8723;51.502;6.918;2023-03-14T04:40:04;5.03;;;2.05;;
17214;SDS011;8723;51.502;6.918;2023-03-14T04:42:31;4.65;;;1.83;;
17214;SDS011;8723;51.502;6.918;2023-03-14T04:45:00;5.87;;;1.80;;
17214;SDS011;8723;51.502;6.918;2023-03-14T04:47:27;4.03;;;1.15;;
17214;SDS011;8723;51.502;6.918;2023-03-14T04:49:54;4.00;;;1.33;;
17214;SDS011;8723;51.502;6.918;2023-03-14T04:52:21;3.40;;;1.10;;
17214;SDS011;8723;51.502;6.918;2023-03-14T04:54:48;5.10;;;1.40;;
17214;SDS011;8723;51.502;6.918;2023-03-14T04:57:15;4.30;;;1.50;;
17214;SDS011;8723;51.502;6.918;2023-03-14T04:59:43;6.22;;;1.88;;
17214;SDS011;8723;51.502;6.918;2023-03-14T05:02:11;4.93;;;1.80;;
17214;SDS011;8723;51.502;6.918;2023-03-14T05:04:38;6.18;;;2.15;;
17214;SDS011;8723;51.502;6.918;2023-03-14T05:07:06;4.00;;;1.80;;
17214;SDS011;8723;51.502;6.918;2023-03-14T05:09:33;4.43;;;1.95;;
17214;SDS011;8723;51.502;6.918;2023-03-14T05:12:00;5.07;;;2.00;;
17214;SDS011;8723;51.502;6.918;2023-03-14T05:14:27;4.55;;;1.80;;
17214;SDS011;8723;51.502;6.918;2023-03-14T05:16:55;3.45;;;1.50;;
17214;SDS011;8723;51.502;6.918;2023-03-14T05:19:23;4.40;;;1.63;;
17214;SDS011;8723;51.502;6.918;2023-03-14T05:21:50;5.00;;;1.90;;
17214;SDS011;8723;51.502;6.918;2023-03-14T05:24:17;3.30;;;1.90;;
17214;SDS011;8723;51.502;6.918;2023-03-14T05:26:45;5.25;;;1.80;;
17214;SDS011;8723;51.502;6.918;2023-03-14T05:29:12;3.75;;;1.80;;
17214;SDS011;8723;51.502;6.918;2023-03-14T05:31:39;4.40;;;1.90;;
17214;SDS011;8723;51.502;6.918;2023-03-14T05:34:06;5.53;;;2.00;;
17214;SDS011;8723;51.502;6.918;2023-03-14T05:36:34;4.33;;;1.80;;
17214;SDS011;8723;51.502;6.918;2023-03-14T05:39:02;4.25;;;1.92;;
17214;SDS011;8723;51.502;6.918;2023-03-14T05:41:29;5.00;;;2.13;;
17214;SDS011;8723;51.502;6.918;2023-03-14T05:43:56;4.35;;;2.42;;
17214;SDS011;8723;51.502;6.918;2023-03-14T05:46:23;4.97;;;3.73;;
17214;SDS011;8723;51.502;6.918;2023-03-14T05:48:50;6.45;;;4.70;;
17214;SDS011;8723;51.502;6.918;2023-03-14T05:51:17;6.60;;;5.10;;
17214;SDS011;8723;51.502;6.918;2023-03-14T05:53:46;8.02;;;5.30;;
17214;SDS011;8723;51.502;6.918;2023-03-14T05:56:13;6.88;;;4.93;;
17214;SDS011;8723;51.502;6.918;2023-03-14T05:58:40;7.40;;;5.07;;
17214;SDS011;8723;51.502;6.918;2023-03-14T06:01:07;6.32;;;4.25;;
17214;SDS011;8723;51.502;6.918;2023-03-14T06:03:35;6.43;;;3.88;;
17214;SDS011;8723;51.502;6.918;2023-03-14T06:06:02;6.25;;;3.20;;
17214;SDS011;8723;51.502;6.918;2023-03-14T06:08:29;6.20;;;3.38;;
17214;SDS011;8723;51.502;6.918;2023-03-14T06:10:58;5.43;;;2.70;;
17214;SDS011;8723;51.502;6.918;2023-03-14T06:13:25;3.30;;;2.22;;
17214;SDS011;8723;51.502;6.918;2023-03-14T06:15:52;4.03;;;2.30;;
17214;SDS011;8723;51.502;6.918;2023-03-14T06:18:19;3.90;;;2.03;;
17214;SDS011;8723;51.502;6.918;2023-03-14T06:20:47;5.30;;;2.60;;
17214;SDS011;8723;51.502;6.918;2023-03-14T06:23:14;3.30;;;1.88;;
17214;SDS011;8723;51.502;6.918;2023-03-14T06:25:41;3.05;;;1.60;;
17214;SDS011;8723;51.502;6.918;2023-03-14T06:28:09;3.30;;;1.80;;
17214;SDS011;8723;51.502;6.918;2023-03-14T06:30:39;2.67;;;1.60;;
17214;SDS011;8723;51.502;6.918;2023-03-14T06:33:06;1.83;;;1.42;;
17214;SDS011;8723;51.502;6.918;2023-03-14T06:35:33;3.25;;;1.60;;
17214;SDS011;8723;51.502;6.918;2023-03-14T06:38:00;2.17;;;1.30;;
17214;SDS011;8723;51.502;6.918;2023-03-14T06:40:27;2.00;;;1.20;;
17214;SDS011;8723;51.502;6.918;2023-03-14T06:42:55;3.20;;;1.20;;
17214;SDS011;8723;51.502;6.918;2023-03-14T06:45:23;3.25;;;1.30;;
17214;SDS011;8723;51.502;6.918;2023-03-14T06:47:50;2.67;;;1.50;;
17214;SDS011;8723;51.502;6.918;2023-03-14T06:50:17;3.40;;;1.40;;
17214;SDS011;8723;51.502;6.918;2023-03-14T06:52:47;3.53;;;1.60;;
17214;SDS011;8723;51.502;6.918;2023-03-14T06:55:14;3.08;;;1.50;;
17214;SDS011;8723;51.502;6.918;2023-03-14T06:57:41;2.67;;;1.33;;
17214;SDS011;8723;51.502;6.918;2023-03-14T07:00:09;2.72;;;1.13;;
17214;SDS011;8723;51.502;6.918;2023-03-14T07:02:38;2.77;;;1.20;;
17214;SDS011;8723;51.502;6.918;2023-03-14T07:05:06;3.55;;;1.48;;
17214;SDS011;8723;51.502;6.918;2023-03-14T07:07:35;2.90;;;1.50;;
17214;SDS011;8723;51.502;6.918;2023-03-14T07:10:02;3.33;;;1.70;;
17214;SDS011;8723;51.502;6.918;2023-03-14T07:12:30;2.50;;;1.80;;
17214;SDS011;8723;51.502;6.918;2023-03-14T07:14:57;3.78;;;1.73;;
17214;SDS011;8723;51.502;6.918;2023-03-14T07:17:24;2.13;;;1.30;;
17214;SDS011;8723;51.502;6.918;2023-03-14T07:19:53;1.33;;;1.20;;
17214;SDS011;8723;51.502;6.918;2023-03-14T07:22:20;1.67;;;1.30;;
17214;SDS011;8723;51.502;6.918;2023-03-14T07:24:47;1.87;;;1.33;;
17214;SDS011;8723;51.502;6.918;2023-03-14T07:27:14;1.83;;;1.30;;
17214;SDS011;8723;51.502;6.918;2023-03-14T07:29:41;1.40;;;1.30;;
17214;SDS011;8723;51.502;6.918;2023-03-14T07:32:08;2.63;;;2.00;;
17214;SDS011;8723;51.502;6.918;2023-03-14T07:34:39;2.83;;;2.15;;
17214;SDS011;8723;51.502;6.918;2023-03-14T07:37:08;2.53;;;2.33;;
17214;SDS011;8723;51.502;6.918;2023-03-14T07:39:35;3.63;;;2.25;;
17214;SDS011;8723;51.502;6.918;2023-03-14T07:42:02;4.53;;;2.75;;
17214;SDS011;8723;51.502;6.918;2023-03-14T07:44:29;5.53;;;2.50;;
17214;SDS011;8723;51.502;6.918;2023-03-14T07:46:57;3.05;;;2.70;;
17214;SDS011;8723;51.502;6.918;2023-03-14T07:49:24;5.00;;;2.92;;
17214;SDS011;8723;51.502;6.918;2023-03-14T07:51:52;4.88;;;2.92;;
17214;SDS011;8723;51.502;6.918;2023-03-14T07:54:20;3.33;;;2.65;;
17214;SDS011;8723;51.502;6.918;2023-03-14T07:56:48;5.13;;;3.17;;
17214;SDS011;8723;51.502;6.918;2023-03-14T07:59:16;4.47;;;3.78;;
17214;SDS011;8723;51.502;6.918;2023-03-14T08:01:43;3.60;;;3.23;;
17214;SDS011;8723;51.502;6.918;2023-03-14T08:04:10;3.72;;;3.40;;
17214;SDS011;8723;51.502;6.918;2023-03-14T08:06:37;3.38;;;3.17;;
17214;SDS011;8723;51.502;6.918;2023-03-14T08:09:05;3.80;;;3.50;;
17214;SDS011;8723;51.502;6.918;2023-03-14T08:11:33;4.05;;;3.70;;
17214;SDS011;8723;51.502;6.918;2023-03-14T08:14:00;3.85;;;3.50;;
17214;SDS011;8723;51.502;6.918;2023-03-14T08:16:28;4.32;;;3.92;;
17214;SDS011;8723;51.502;6.918;2023-03-14T08:18:55;5.20;;;4.20;;
17214;SDS011;8723;51.502;6.918;2023-03-14T08:21:22;5.95;;;4.55;;
17214;SDS011;8723;51.502;6.918;2023-03-14T08:23:49;4.80;;;3.80;;
17214;SDS011;8723;51.502;6.918;2023-03-14T08:26:16;4.03;;;3.65;;
17214;SDS011;8723;51.502;6.918;2023-03-14T08:28:45;4.82;;;3.70;;
17214;SDS011;8723;51.502;6.918;2023-03-14T08:31:12;4.13;;;3.83;;
17214;SDS011;8723;51.502;6.918;2023-03-14T08:33:39;3.88;;;3.42;;
17214;SDS011;8723;51.502;6.918;2023-03-14T08:36:07;4.87;;;3.60;;
17214;SDS011;8723;51.502;6.918;2023-03-14T08:38:34;3.60;;;3.30;;
17214;SDS011;8723;51.502;6.918;2023-03-14T08:41:01;3.20;;;2.90;;
17214;SDS011;8723;51.502;6.918;2023-03-14T08:43:30;2.03;;;1.85;;
17214;SDS011;8723;51.502;6.918;2023-03-14T08:45:58;2.35;;;2.15;;
17214;SDS011;8723;51.502;6.918;2023-03-14T08:48:26;2.00;;;1.90;;
17214;SDS011;8723;51.502;6.918;2023-03-14T08:50:54;2.20;;;2.03;;
17214;SDS011;8723;51.502;6.918;2023-03-14T08:53:21;2.10;;;2.00;;
17214;SDS011;8723;51.502;6.918;2023-03-14T08:55:51;2.55;;;2.35;;
17214;SDS011;8723;51.502;6.918;2023-03-14T08:58:19;2.10;;;2.00;;
17214;SDS011;8723;51.502;6.918;2023-03-14T09:00:47;2.47;;;2.25;;
17214;SDS011;8723;51.502;6.918;2023-03-14T09:03:16;2.30;;;2.10;;
17214;SDS011;8723;51.502;6.918;2023-03-14T09:05:43;2.25;;;2.10;;
17214;SDS011;8723;51.502;6.918;2023-03-14T09:08:10;2.50;;;2.30;;
17214;SDS011;8723;51.502;6.918;2023-03-14T09:10:37;3.17;;;2.10;;
17214;SDS011;8723;51.502;6.918;2023-03-14T09:13:04;3.55;;;2.10;;
17214;SDS011;8723;51.502;6.918;2023-03-14T09:15:32;11.43;;;3.33;;
17214;SDS011;8723;51.502;6.918;2023-03-14T09:17:59;3.92;;;2.10;;
17214;SDS011;8723;51.502;6.918;2023-03-14T09:20:28;2.80;;;2.23;;
17214;SDS011;8723;51.502;6.918;2023-03-14T09:22:55;2.03;;;1.50;;
17214;SDS011;8723;51.502;6.918;2023-03-14T09:25:22;1.50;;;1.40;;
17214;SDS011;8723;51.502;6.918;2023-03-14T09:27:49;1.92;;;1.30;;
17214;SDS011;8723;51.502;6.918;2023-03-14T09:30:16;2.05;;;1.33;;
17214;SDS011;8723;51.502;6.918;2023-03-14T09:32:43;2.28;;;1.52;;
17214;SDS011;8723;51.502;6.918;2023-03-14T09:35:10;1.85;;;1.63;;
17214;SDS011;8723;51.502;6.918;2023-03-14T09:37:39;2.53;;;1.70;;
17214;SDS011;8723;51.502;6.918;2023-03-14T09:40:09;2.63;;;1.90;;
17214;SDS011;8723;51.502;6.918;2023-03-14T09:42:38;2.40;;;1.80;;
17214;SDS011;8723;51.502;6.918;2023-03-14T09:45:09;2.55;;;1.83;;
17214;SDS011;8723;51.502;6.918;2023-03-14T09:47:37;2.00;;;1.80;;
17214;SDS011;8723;51.502;6.918;2023-03-14T09:50:05;1.70;;;1.60;;
17214;SDS011;8723;51.502;6.918;2023-03-14T09:52:33;3.15;;;1.70;;
17214;SDS011;8723;51.502;6.918;2023-03-14T09:55:04;3.00;;;2.15;;
17214;SDS011;8723;51.502;6.918;2023-03-14T09:57:33;2.03;;;1.83;;
17214;SDS011;8723;51.502;6.918;2023-03-14T10:00:03;3.38;;;2.20;;
17214;SDS011;8723;51.502;6.918;2023-03-14T10:02:38;3.15;;;2.03;;
17214;SDS011;8723;51.502;6.918;2023-03-14T10:05:07;2.53;;;2.07;;
17214;SDS011;8723;51.502;6.918;2023-03-14T10:07:35;2.35;;;2.15;;
17214;SDS011;8723;51.502;6.918;2023-03-14T10:10:08;3.05;;;2.53;;
17214;SDS011;8723;51.502;6.918;2023-03-14T10:12:37;2.65;;;2.40;;
17214;SDS011;8723;51.502;6.918;2023-03-14T10:15:05;3.67;;;2.60;;
17214;SDS011;8723;51.502;6.918;2023-03-14T10:17:38;3.00;;;2.30;;
17214;SDS011;8723;51.502;6.918;2023-03-14T10:20:06;2.92;;;2.70;;
17214;SDS011;8723;51.502;6.918;2023-03-14T10:22:35;4.10;;;3.05;;
17214;SDS011;8723;51.502;6.918;2023-03-14T10:25:03;4.47;;;3.40;;
17214;SDS011;8723;51.502;6.918;2023-03-14T10:27:34;3.05;;;2.00;;
17214;SDS011;8723;51.502;6.918;2023-03-14T10:30:02;2.90;;;2.10;;
17214;SDS011;8723;51.502;6.918;2023-03-14T10:32:32;4.05;;;2.20;;
17214;SDS011;8723;51.502;6.918;2023-03-14T10:35:04;2.40;;;2.00;;
17214;SDS011;8723;51.502;6.918;2023-03-14T10:37:31;4.53;;;2.30;;
17214;SDS011;8723;51.502;6.918;2023-03-14T10:39:59;3.40;;;2.38;;
17214;SDS011;8723;51.502;6.918;2023-03-14T10:42:31;3.28;;;1.80;;
17214;SDS011;8723;51.502;6.918;2023-03-14T10:45:01;3.95;;;2.25;;
17214;SDS011;8723;51.502;6.918;2023-03-14T10:47:29;5.32;;;2.47;;
17214;SDS011;8723;51.502;6.918;2023-03-14T10:49:56;4.65;;;2.50;;
17214;SDS011;8723;51.502;6.918;2023-03-14T10:52:24;2.70;;;2.03;;
17214;SDS011;8723;51.502;6.918;2023-03-14T10:54:53;3.38;;;2.10;;
17214;SDS011;8723;51.502;6.918;2023-03-14T10:57:21;5.93;;;2.30;;
17214;SDS011;8723;51.502;6.918;2023-03-14T10:59:48;2.85;;;2.10;;
17214;SDS011;8723;51.502;6.918;2023-03-14T11:02:24;4.40;;;2.00;;
17214;SDS011;8723;51.502;6.918;2023-03-14T11:04:55;5.40;;;2.30;;
17214;SDS011;8723;51.502;6.918;2023-03-14T11:07:26;5.55;;;2.40;;
17214;SDS011;8723;51.502;6.918;2023-03-14T11:09:55;6.18;;;2.40;;
17214;SDS011;8723;51.502;6.918;2023-03-14T11:12:29;2.53;;;1.80;;
17214;SDS011;8723;51.502;6.918;2023-03-14T11:14:58;3.13;;;1.90;;
17214;SDS011;8723;51.502;6.918;2023-03-14T11:17:33;4.87;;;1.97;;
17214;SDS011;8723;51.502;6.918;2023-03-14T11:20:07;2.13;;;1.60;;
17214;SDS011;8723;51.502;6.918;2023-03-14T11:22:38;2.78;;;1.70;;
17214;SDS011;8723;51.502;6.918;2023-03-14T11:25:11;2.53;;;1.45;;
17214;SDS011;8723;51.502;6.918;2023-03-14T11:27:43;2.35;;;1.50;;
17214;SDS011;8723;51.502;6.918;2023-03-14T11:30:15;3.58;;;1.63;;
17214;SDS011;8723;51.502;6.918;2023-03-14T11:32:45;2.20;;;1.20;;
17214;SDS011;8723;51.502;6.918;2023-03-14T11:35:16;3.60;;;1.30;;
17214;SDS011;8723;51.502;6.918;2023-03-14T11:37:45;4.50;;;1.30;;
17214;SDS011;8723;51.502;6.918;2023-03-14T11:40:14;3.90;;;1.23;;
17214;SDS011;8723;51.502;6.918;2023-03-14T11:42:44;4.65;;;1.20;;
17214;SDS011;8723;51.502;6.918;2023-03-14T11:45:14;4.97;;;1.38;;
17214;SDS011;8723;51.502;6.918;2023-03-14T11:47:45;3.67;;;1.23;;
17214;SDS011;8723;51.502;6.918;2023-03-14T11:50:15;2.50;;;1.40;;
17214;SDS011;8723;51.502;6.918;2023-03-14T11:52:44;3.87;;;1.50;;
17214;SDS011;8723;51.502;6.918;2023-03-14T11:55:15;4.40;;;1.30;;
17214;SDS011;8723;51.502;6.918;2023-03-14T11:57:44;5.50;;;1.60;;
17214;SDS011;8723;51.502;6.918;2023-03-14T12:00:14;4.63;;;1.63;;
17214;SDS011;8723;51.502;6.918;2023-03-14T12:02:46;4.93;;;1.50;;
17214;SDS011;8723;51.502;6.918;2023-03-14T12:08:24;3.63;;;1.48;;
17214;SDS011;8723;51.502;6.918;2023-03-14T12:10:54;5.53;;;1.40;;
17214;SDS011;8723;51.502;6.918;2023-03-14T12:13:22;4.20;;;1.40;;
17214;SDS011;8723;51.502;6.918;2023-03-14T12:15:55;4.50;;;1.40;;
17214;SDS011;8723;51.502;6.918;2023-03-14T12:18:27;4.03;;;1.30;;
17214;SDS011;8723;51.502;6.918;2023-03-14T12:20:56;4.72;;;1.20;;
17214;SDS011;8723;51.502;6.918;2023-03-14T12:23:24;4.10;;;1.48;;
17214;SDS011;8723;51.502;6.918;2023-03-14T12:26:06;6.55;;;1.77;;
17214;SDS011;8723;51.502;6.918;2023-03-14T12:28:34;4.25;;;1.50;;
17214;SDS011;8723;51.502;6.918;2023-03-14T12:33:44;5.78;;;1.45;;
17214;SDS011;8723;51.502;6.918;2023-03-14T12:36:17;6.77;;;1.83;;
17214;SDS011;8723;51.502;6.918;2023-03-14T12:38:49;6.03;;;1.80;;
17214;SDS011;8723;51.502;6.918;2023-03-14T12:41:20;8.20;;;2.00;;
17214;SDS011;8723;51.502;6.918;2023-03-14T12:43:47;6.53;;;1.80;;
17214;SDS011;8723;51.502;6.918;2023-03-14T12:46:18;5.00;;;1.48;;
17214;SDS011;8723;51.502;6.918;2023-03-14T12:48:47;11.52;;;2.85;;
17214;SDS011;8723;51.502;6.918;2023-03-14T12:51:16;13.88;;;2.95;;
17214;SDS011;8723;51.502;6.918;2023-03-14T12:54:00;11.60;;;2.97;;
17214;SDS011;8723;51.502;6.918;2023-03-14T12:56:51;15.88;;;3.65;;
17214;SDS011;8723;51.502;6.918;2023-03-14T12:59:23;12.95;;;3.08;;
17214;SDS011;8723;51.502;6.918;2023-03-14T13:01:55;10.60;;;2.85;;
17214;SDS011;8723;51.502;6.918;2023-03-14T13:04:28;16.30;;;3.67;;
17214;SDS011;8723;51.502;6.918;2023-03-14T13:06:56;10.52;;;2.95;;
17214;SDS011;8723;51.502;6.918;2023-03-14T13:09:49;15.82;;;3.58;;
17214;SDS011;8723;51.502;6.918;2023-03-14T13:12:18;15.25;;;3.58;;
17214;SDS011;8723;51.502;6.918;2023-03-14T13:14:45;13.10;;;3.40;;
17214;SDS011;8723;51.502;6.918;2023-03-14T13:17:14;11.48;;;2.83;;
17214;SDS011;8723;51.502;6.918;2023-03-14T13:19:42;12.40;;;3.20;;
17214;SDS011;8723;51.502;6.918;2023-03-14T13:22:14;13.33;;;3.23;;
17214;SDS011;8723;51.502;6.918;2023-03-14T13:24:43;18.30;;;3.80;;
17214;SDS011;8723;51.502;6.918;2023-03-14T13:27:13;13.38;;;3.10;;
17214;SDS011;8723;51.502;6.918;2023-03-14T13:29:43;13.02;;;3.50;;
17214;SDS011;8723;51.502;6.918;2023-03-14T13:32:13;13.97;;;3.93;;
17214;SDS011;8723;51.502;6.918;2023-03-14T13:34:44;18.47;;;4.57;;
17214;SDS011;8723;51.502;6.918;2023-03-14T13:37:15;17.88;;;3.90;;
17214;SDS011;8723;51.502;6.918;2023-03-14T13:39:42;14.32;;;3.95;;
17214;SDS011;8723;51.502;6.918;2023-03-14T13:42:10;13.60;;;4.07;;
17214;SDS011;8723;51.502;6.918;2023-03-14T13:44:40;20.70;;;5.13;;
17214;SDS011;8723;51.502;6.918;2023-03-14T13:47:10;20.50;;;3.90;;
17214;SDS011;8723;51.502;6.918;2023-03-14T13:49:39;17.55;;;4.40;;
17214;SDS011;8723;51.502;6.918;2023-03-14T13:55:00;23.10;;;6.45;;
17214;SDS011;8723;51.502;6.918;2023-03-14T13:57:28;13.60;;;3.65;;
17214;SDS011;8723;51.502;6.918;2023-03-14T14:00:17;16.92;;;4.05;;
17214;SDS011;8723;51.502;6.918;2023-03-14T14:02:44;14.18;;;4.22;;
17214;SDS011;8723;51.502;6.918;2023-03-14T14:05:11;10.98;;;3.85;;
17214;SDS011;8723;51.502;6.918;2023-03-14T14:07:39;14.68;;;4.20;;
17214;SDS011;8723;51.502;6.918;2023-03-14T14:10:10;14.52;;;3.40;;
17214;SDS011;8723;51.502;6.918;2023-03-14T14:12:38;13.38;;;3.45;;
17214;SDS011;8723;51.502;6.918;2023-03-14T14:15:07;12.65;;;3.03;;
17214;SDS011;8723;51.502;6.918;2023-03-14T14:17:35;11.50;;;2.47;;
17214;SDS011;8723;51.502;6.918;2023-03-14T14:20:04;10.15;;;2.70;;
17214;SDS011;8723;51.502;6.918;2023-03-14T14:22:32;9.18;;;2.97;;
17214;SDS011;8723;51.502;6.918;2023-03-14T14:24:59;9.63;;;2.67;;
17214;SDS011;8723;51.502;6.918;2023-03-14T14:27:29;9.07;;;2.47;;
17214;SDS011;8723;51.502;6.918;2023-03-14T14:29:58;12.13;;;3.22;;
17214;SDS011;8723;51.502;6.918;2023-03-14T14:32:26;10.82;;;2.63;;
17214;SDS011;8723;51.502;6.918;2023-03-14T14:34:57;8.73;;;2.42;;
17214;SDS011;8723;51.502;6.918;2023-03-14T14:37:25;6.22;;;1.80;;
17214;SDS011;8723;51.502;6.918;2023-03-14T14:39:52;6.38;;;2.10;;
17214;SDS011;8723;51.502;6.918;2023-03-14T14:42:21;9.73;;;2.58;;
17214;SDS011;8723;51.502;6.918;2023-03-14T14:44:50;7.80;;;2.40;;
17214;SDS011;8723;51.502;6.918;2023-03-14T14:47:18;7.88;;;2.22;;
17214;SDS011;8723;51.502;6.918;2023-03-14T14:49:46;9.30;;;2.80;;
17214;SDS011;8723;51.502;6.918;2023-03-14T14:52:15;9.52;;;2.53;;
17214;SDS011;8723;51.502;6.918;2023-03-14T14:54:44;10.40;;;2.43;;
17214;SDS011;8723;51.502;6.918;2023-03-14T14:57:17;7.78;;;2.40;;
17214;SDS011;8723;51.502;6.918;2023-03-14T14:59:44;7.60;;;2.20;;
17214;SDS011;8723;51.502;6.918;2023-03-14T15:02:25;7.05;;;2.55;;
17214;SDS011;8723;51.502;6.918;2023-03-14T15:04:54;7.55;;;2.28;;
17214;SDS011;8723;51.502;6.918;2023-03-14T15:07:21;8.33;;;2.30;;
17214;SDS011;8723;51.502;6.918;2023-03-14T15:09:48;8.73;;;2.42;;
17214;SDS011;8723;51.502;6.918;2023-03-14T15:12:15;9.13;;;2.53;;
17214;SDS011;8723;51.502;6.918;2023-03-14T15:14:43;7.33;;;2.30;;
17214;SDS011;8723;51.502;6.918;2023-03-14T15:17:10;7.80;;;2.30;;